Time;durP1;ratioP1;P1;durP2;ratioP2;P2;SDS_P1;SDS_P2;PMS_P1;PMS_P2;Temp;Humidity;BMP_temperature;BMP_pressure;BME280_temperature;BME280_humidity;BME280_pressure;Samples;Min_cycle;Max_cycle;Signal;HPM_P1;HPM_P2
2023/12/06 00:01:47;;;;;;;1.77;1.00;;;;;;;2.07;100.00;151898.81;5050529;28;20462;-86
2023/12/06 00:04:15;;;;;;;1.53;1.00;;;;;;;2.03;100.00;151887.25;5028772;28;20818;-85
2023/12/06 00:06:42;;;;;;;1.70;0.90;;;;;;;2.05;100.00;151893.69;5034091;28;20447;-85
2023/12/06 00:09:08;;;;;;;1.30;0.90;;;;;;;2.07;100.00;151898.81;5039558;28;20459;-85
2023/12/06 00:11:35;;;;;;;1.40;0.80;;;;;;;2.10;100.00;151906.53;5048902;28;20512;-86
2023/12/06 00:14:01;;;;;;;1.07;0.80;;;;;;;2.16;100.00;151920.69;5029750;28;20458;-85
2023/12/06 00:16:28;;;;;;;1.60;0.90;;;;;;;2.17;100.00;151923.28;5032456;28;20478;-85
2023/12/06 00:18:55;;;;;;;1.70;0.83;;;;;;;2.13;100.00;151914.25;5042369;28;20983;-85
2023/12/06 00:21:23;;;;;;;1.63;0.83;;;;;;;2.11;100.00;151907.84;5048321;28;20520;-85
2023/12/06 00:23:49;;;;;;;1.70;0.90;;;;;;;2.08;100.00;151900.13;5047760;28;20458;-85
2023/12/06 00:26:16;;;;;;;1.20;0.67;;;;;;;2.08;100.00;151900.13;5051046;28;20438;-86
2023/12/06 00:28:42;;;;;;;1.17;0.70;;;;;;;2.11;100.00;151907.84;5031366;28;20451;-86
2023/12/06 00:31:09;;;;;;;1.50;1.10;;;;;;;2.12;100.00;151911.69;5050999;28;20478;-85
2023/12/06 00:33:36;;;;;;;1.60;0.97;;;;;;;2.12;100.00;151911.69;5028831;28;20435;-86
2023/12/06 00:36:02;;;;;;;1.50;1.10;;;;;;;2.13;100.00;151914.25;5015340;28;20478;-85
2023/12/06 00:38:30;;;;;;;1.23;0.87;;;;;;;2.14;100.00;151916.84;5049538;28;20458;-85
2023/12/06 00:40:56;;;;;;;1.87;1.10;;;;;;;2.17;100.00;151923.28;5032200;28;20446;-85
2023/12/06 00:43:23;;;;;;;1.00;0.70;;;;;;;2.16;100.00;151921.97;5033221;28;20447;-86
2023/12/06 00:45:50;;;;;;;1.60;0.70;;;;;;;2.16;100.00;151921.97;5033865;28;20484;-85
2023/12/06 00:48:16;;;;;;;1.10;0.77;;;;;;;2.16;100.00;151920.69;5049404;28;20505;-85
2023/12/06 00:50:43;;;;;;;1.30;0.73;;;;;;;2.16;100.00;151921.97;5047119;28;20532;-84
2023/12/06 00:53:10;;;;;;;1.23;0.70;;;;;;;2.14;100.00;151915.56;5044200;28;20442;-85
2023/12/06 00:55:38;;;;;;;1.20;0.80;;;;;;;2.13;100.00;151914.25;5022768;28;20518;-85
2023/12/06 00:58:04;;;;;;;1.10;0.70;;;;;;;2.10;100.00;151906.53;5056971;28;20577;-85
2023/12/06 01:00:31;;;;;;;1.23;0.60;;;;;;;2.08;100.00;151901.41;5057660;28;20450;-85
2023/12/06 01:02:57;;;;;;;1.10;0.70;;;;;;;2.10;100.00;151906.53;5047669;28;20439;-85
2023/12/06 01:05:24;;;;;;;1.40;0.87;;;;;;;2.12;100.00;151911.69;5059018;28;20442;-85
2023/12/06 01:07:50;;;;;;;1.07;0.67;;;;;;;2.12;100.00;151911.69;5046692;28;20463;-85
2023/12/06 01:10:17;;;;;;;1.30;0.87;;;;;;;2.13;100.00;151912.97;5047796;28;20454;-85
2023/12/06 01:12:45;;;;;;;1.57;0.77;;;;;;;2.09;100.00;151903.94;5047910;28;20668;-85
2023/12/06 01:15:11;;;;;;;1.30;0.70;;;;;;;2.09;100.00;151903.94;5027653;28;20470;-84
2023/12/06 01:17:38;;;;;;;1.30;0.73;;;;;;;2.11;100.00;151909.13;5048457;28;20802;-85
2023/12/06 01:20:08;;;;;;;0.97;0.70;;;;;;;2.15;100.00;151919.41;5028768;28;20454;-85
2023/12/06 01:22:35;;;;;;;1.60;0.80;;;;;;;2.14;100.00;151915.56;5024744;28;20463;-85
2023/12/06 01:25:03;;;;;;;1.03;0.70;;;;;;;2.10;100.00;151906.53;5029169;28;20956;-85
2023/12/06 01:27:30;;;;;;;2.00;0.97;;;;;;;2.04;100.00;151891.09;5028428;28;20455;-85
2023/12/06 01:29:57;;;;;;;1.30;0.80;;;;;;;2.03;100.00;151887.25;5024729;28;20466;-85
2023/12/06 01:32:24;;;;;;;1.33;0.93;;;;;;;2.07;100.00;151897.53;5046380;28;20461;-85
2023/12/06 01:34:50;;;;;;;1.10;0.60;;;;;;;2.09;100.00;151903.94;5045532;28;20443;-85
2023/12/06 01:37:17;;;;;;;1.50;0.90;;;;;;;2.13;100.00;151914.25;5039695;28;20455;-84
2023/12/06 01:39:43;;;;;;;1.10;0.80;;;;;;;2.12;100.00;151911.69;5031154;28;20431;-85
2023/12/06 01:42:10;;;;;;;1.23;0.80;;;;;;;2.10;100.00;151906.53;5027084;28;20466;-85
2023/12/06 01:44:36;;;;;;;1.30;0.83;;;;;;;2.09;100.00;151903.94;5049885;28;20443;-86
2023/12/06 01:47:06;;;;;;;1.10;0.63;;;;;;;2.09;100.00;151903.94;5047329;28;20517;-86
2023/12/06 01:49:33;;;;;;;1.43;0.90;;;;;;;2.08;100.00;151901.41;5047553;28;20497;-86
2023/12/06 01:51:59;;;;;;;1.33;0.80;;;;;;;2.04;100.00;151891.09;5028451;28;20462;-86
2023/12/06 01:54:26;;;;;;;1.40;0.80;;;;;;;2.04;100.00;151891.09;5048866;28;20493;-86
2023/12/06 01:56:53;;;;;;;1.20;0.77;;;;;;;2.05;100.00;151892.41;5028919;28;20501;-86
2023/12/06 01:59:20;;;;;;;1.87;0.93;;;;;;;2.06;100.00;151895.00;5028110;28;20443;-86
2023/12/06 02:01:46;;;;;;;2.03;0.90;;;;;;;2.07;100.00;151898.81;5027841;28;20461;-86
2023/12/06 02:04:18;;;;;;;1.43;0.70;;;;;;;2.06;100.00;151895.00;5010183;28;1052505;-86
2023/12/06 02:06:45;;;;;;;0.90;0.60;;;;;;;2.08;100.00;151900.13;5014398;28;20235;-86
2023/12/06 02:09:12;;;;;;;1.30;0.90;;;;;;;2.08;100.00;151901.41;5042079;28;20471;-86
2023/12/06 02:11:39;;;;;;;1.30;0.70;;;;;;;2.09;100.00;151902.72;5022713;28;20493;-86
2023/12/06 02:14:05;;;;;;;1.53;0.93;;;;;;;2.04;100.00;151889.84;5030190;28;20446;-86
2023/12/06 02:16:32;;;;;;;1.10;0.80;;;;;;;2.04;100.00;151891.09;5048760;28;20481;-85
2023/12/06 02:18:58;;;;;;;1.20;0.70;;;;;;;2.06;100.00;151896.28;5042429;28;20454;-86
2023/12/06 02:21:26;;;;;;;1.30;0.80;;;;;;;2.08;100.00;151900.13;5046151;28;20550;-86
2023/12/06 02:23:53;;;;;;;1.57;0.97;;;;;;;2.09;100.00;151903.94;5026419;28;20875;-86
2023/12/06 02:26:21;;;;;;;1.30;1.00;;;;;;;2.04;100.00;151891.09;5048342;28;20532;-85
2023/12/06 02:28:53;;;;;;;1.00;0.70;;;;;;;1.98;100.00;151875.72;5028195;28;20880;-85
2023/12/06 02:31:20;;;;;;;0.83;0.53;;;;;;;2.00;100.00;151880.84;5030029;28;21015;-85
2023/12/06 02:33:47;;;;;;;1.27;0.90;;;;;;;2.04;100.00;151889.84;5037720;28;20438;-86
2023/12/06 02:36:14;;;;;;;1.00;0.70;;;;;;;2.08;100.00;151901.41;5026236;28;20537;-85
2023/12/06 02:38:41;;;;;;;1.37;0.80;;;;;;;2.08;100.00;151900.13;5046619;28;20964;-86
2023/12/06 02:41:11;;;;;;;1.60;0.93;;;;;;;2.07;100.00;151898.81;5048342;28;20450;-85
2023/12/06 02:43:38;;;;;;;1.30;0.70;;;;;;;2.07;100.00;151897.53;5045845;28;20509;-85
2023/12/06 02:46:06;;;;;;;1.30;0.80;;;;;;;2.05;100.00;151893.69;5046506;28;20454;-85
2023/12/06 02:48:33;;;;;;;1.10;0.80;;;;;;;2.09;100.00;151903.94;5030694;28;21039;-85
2023/12/06 02:51:00;;;;;;;1.10;0.80;;;;;;;2.07;100.00;151898.81;5031168;28;20447;-86
2023/12/06 02:53:26;;;;;;;1.17;0.70;;;;;;;2.07;100.00;151898.81;5044343;28;20455;-76
2023/12/06 02:55:53;;;;;;;1.00;0.70;;;;;;;2.06;100.00;151896.28;5046849;28;20478;-76
2023/12/06 02:58:19;;;;;;;1.00;0.60;;;;;;;2.04;100.00;151891.09;5014101;28;20426;-76
2023/12/06 03:00:47;;;;;;;1.30;1.00;;;;;;;2.07;100.00;151898.81;5048997;28;20795;-76
2023/12/06 03:03:13;;;;;;;1.50;1.10;;;;;;;2.07;100.00;151897.53;5028484;28;20508;-75
2023/12/06 03:05:40;;;;;;;1.00;0.63;;;;;;;2.10;100.00;151906.53;5046566;28;20825;-76
2023/12/06 03:08:07;;;;;;;1.70;1.00;;;;;;;2.11;100.00;151909.13;5048403;28;20944;-76
2023/12/06 03:10:34;;;;;;;1.40;0.90;;;;;;;2.14;100.00;151915.56;5044342;28;20476;-77
2023/12/06 03:13:00;;;;;;;1.17;0.80;;;;;;;2.11;100.00;151909.13;5047424;28;20700;-76
2023/12/06 03:15:27;;;;;;;2.10;1.00;;;;;;;2.12;100.00;151910.44;5029430;28;20449;-76
2023/12/06 03:17:54;;;;;;;1.30;0.90;;;;;;;2.08;100.00;151900.13;5029931;28;20862;-77
2023/12/06 03:20:21;;;;;;;1.83;0.90;;;;;;;2.11;100.00;151909.13;5044726;28;20940;-76
2023/12/06 03:22:51;;;;;;;1.40;0.90;;;;;;;2.12;100.00;151911.69;5024973;28;20941;-76
2023/12/06 03:25:17;;;;;;;1.30;0.83;;;;;;;2.11;100.00;151909.13;5047697;28;20445;-76
2023/12/06 03:27:45;;;;;;;1.17;0.80;;;;;;;2.08;100.00;151900.13;5029272;28;20530;-76
2023/12/06 03:30:12;;;;;;;1.60;0.90;;;;;;;2.13;100.00;151912.97;5043987;28;20462;-76
2023/12/06 03:32:39;;;;;;;1.53;1.03;;;;;;;2.12;100.00;151911.69;5044756;28;20466;-76
2023/12/06 03:35:08;;;;;;;1.73;0.83;;;;;;;2.11;100.00;151909.13;5047740;28;20445;-76
2023/12/06 03:37:35;;;;;;;1.57;0.80;;;;;;;2.11;100.00;151907.84;5025487;28;20479;-76
2023/12/06 03:40:02;;;;;;;1.37;0.80;;;;;;;2.08;100.00;151900.13;5030227;28;20443;-76
2023/12/06 03:42:28;;;;;;;1.00;0.60;;;;;;;2.07;100.00;151897.53;5029506;28;20550;-76
2023/12/06 03:44:55;;;;;;;2.30;0.80;;;;;;;2.05;100.00;151893.69;5049510;28;20435;-76
2023/12/06 03:47:21;;;;;;;1.27;0.70;;;;;;;2.07;100.00;151897.53;5028182;28;20451;-76
2023/12/06 03:49:48;;;;;;;1.40;0.90;;;;;;;2.04;100.00;151891.09;5050090;28;20854;-76
2023/12/06 03:52:16;;;;;;;1.80;0.70;;;;;;;2.07;100.00;151897.53;5050596;28;20470;-76
2023/12/06 03:54:42;;;;;;;1.10;0.60;;;;;;;2.10;100.00;151905.25;5049308;28;20438;-76
2023/12/06 03:57:09;;;;;;;1.37;0.70;;;;;;;2.08;100.00;151900.13;5032620;28;20565;-76
2023/12/06 03:59:35;;;;;;;0.90;0.40;;;;;;;2.06;100.00;151896.28;5051731;28;20458;-76
2023/12/06 04:02:02;;;;;;;0.93;0.73;;;;;;;2.05;100.00;151893.69;5050389;28;20450;-76
2023/12/06 04:04:28;;;;;;;1.23;0.70;;;;;;;2.07;100.00;151897.53;5049821;28;20474;-76
2023/12/06 04:06:55;;;;;;;1.00;0.70;;;;;;;2.03;100.00;151887.25;5029900;28;20447;-76
2023/12/06 04:09:23;;;;;;;1.33;0.73;;;;;;;2.04;100.00;151891.09;5031131;28;20508;-76
2023/12/06 04:11:49;;;;;;;1.03;0.60;;;;;;;2.07;100.00;151898.81;5030831;28;20455;-76
2023/12/06 04:14:16;;;;;;;1.27;0.70;;;;;;;2.09;100.00;151903.94;5025580;28;20529;-76
2023/12/06 04:16:43;;;;;;;1.10;0.80;;;;;;;2.08;100.00;151901.41;5043350;28;20548;-76
2023/12/06 04:19:09;;;;;;;1.00;0.60;;;;;;;2.06;100.00;151895.00;5031317;28;20459;-76
2023/12/06 04:21:36;;;;;;;1.20;0.60;;;;;;;2.01;100.00;151883.44;5028773;28;20459;-76
2023/12/06 04:24:02;;;;;;;1.07;0.43;;;;;;;2.01;100.00;151882.13;5047720;28;20535;-76
2023/12/06 04:26:30;;;;;;;0.90;0.60;;;;;;;2.00;100.00;151880.84;5050341;28;20439;-76
2023/12/06 04:28:56;;;;;;;1.07;0.60;;;;;;;2.01;100.00;151883.44;5049502;28;20458;-76
2023/12/06 04:31:23;;;;;;;1.00;0.60;;;;;;;2.03;100.00;151888.56;5048162;28;20454;-76
2023/12/06 04:33:50;;;;;;;1.57;0.60;;;;;;;2.05;100.00;151893.69;5051064;28;20793;-76
2023/12/06 04:36:16;;;;;;;1.07;0.70;;;;;;;2.07;100.00;151898.81;5050407;28;20928;-76
2023/12/06 04:38:43;;;;;;;1.40;0.77;;;;;;;2.08;100.00;151900.13;5024027;28;20450;-86
2023/12/06 04:41:09;;;;;;;0.93;0.60;;;;;;;2.08;100.00;151901.41;5028771;28;20448;-86
2023/12/06 04:43:37;;;;;;;1.20;0.73;;;;;;;2.10;100.00;151905.25;5028503;28;20448;-86
2023/12/06 04:46:04;;;;;;;1.10;0.70;;;;;;;2.08;100.00;151900.13;5044724;28;20474;-86
2023/12/06 04:48:30;;;;;;;1.67;0.70;;;;;;;2.07;100.00;151898.81;5045993;28;20446;-86
2023/12/06 04:50:57;;;;;;;1.20;0.80;;;;;;;2.07;100.00;151898.81;5032249;28;20446;-85
2023/12/06 04:53:23;;;;;;;1.00;0.60;;;;;;;2.07;100.00;151898.81;5048016;28;20458;-85
2023/12/06 04:55:50;;;;;;;0.90;0.60;;;;;;;2.06;100.00;151896.28;5041835;28;20528;-86
2023/12/06 04:58:16;;;;;;;1.20;0.60;;;;;;;2.05;100.00;151893.69;5032049;28;20500;-85
2023/12/06 05:00:44;;;;;;;1.07;0.60;;;;;;;2.11;100.00;151907.84;5030904;28;20459;-85
2023/12/06 05:03:11;;;;;;;1.23;0.70;;;;;;;2.13;100.00;151914.25;5029878;28;20454;-85
2023/12/06 05:05:37;;;;;;;0.90;0.50;;;;;;;2.11;100.00;151907.84;5040171;28;20532;-86
2023/12/06 05:08:05;;;;;;;1.07;0.60;;;;;;;2.08;100.00;151900.13;5046964;28;20466;-86
2023/12/06 05:10:32;;;;;;;1.10;0.70;;;;;;;2.05;100.00;151893.69;5013754;28;20455;-85
2023/12/06 05:12:59;;;;;;;0.90;0.50;;;;;;;2.04;100.00;151891.09;5031191;28;20458;-85
2023/12/06 05:15:28;;;;;;;1.10;0.60;;;;;;;2.05;100.00;151893.69;5050153;28;20798;-85
2023/12/06 05:18:16;;;;;;;0.90;0.50;;;;;;;2.04;100.00;151891.09;5050015;28;20536;-86
2023/12/06 05:20:46;;;;;;;1.00;0.60;;;;;;;2.03;100.00;151888.56;5025053;28;20449;-76
2023/12/06 05:23:16;;;;;;;1.00;0.50;;;;;;;2.03;100.00;151888.56;5041367;28;20490;-76
2023/12/06 05:25:46;;;;;;;1.10;0.60;;;;;;;2.02;100.00;151885.97;5037456;28;20432;-76
2023/12/06 05:28:16;;;;;;;1.00;0.60;;;;;;;2.03;100.00;151887.25;5042588;28;20524;-76
2023/12/06 05:30:43;;;;;;;1.00;0.70;;;;;;;2.04;100.00;151889.84;5047145;28;20553;-76
2023/12/06 05:33:11;;;;;;;1.03;0.60;;;;;;;2.03;100.00;151888.56;5047913;28;20446;-76
2023/12/06 05:35:38;;;;;;;1.10;0.50;;;;;;;2.03;100.00;151888.56;5030538;28;20431;-76
2023/12/06 05:38:04;;;;;;;1.53;0.70;;;;;;;2.01;100.00;151883.44;5029362;28;20490;-76
2023/12/06 05:40:33;;;;;;;1.90;0.70;;;;;;;2.05;100.00;151893.69;5027256;28;20485;-76
2023/12/06 05:43:00;;;;;;;1.60;1.03;;;;;;;2.04;100.00;151891.09;5049264;28;20903;-76
2023/12/06 05:45:26;;;;;;;1.10;0.60;;;;;;;2.06;100.00;151896.28;5031957;28;21000;-76
2023/12/06 05:47:53;;;;;;;1.10;0.80;;;;;;;2.08;100.00;151901.41;5032669;28;20458;-76
2023/12/06 05:50:21;;;;;;;1.20;0.73;;;;;;;2.06;100.00;151896.28;5030481;28;20537;-76
2023/12/06 05:52:47;;;;;;;0.90;0.53;;;;;;;2.06;100.00;151896.28;5043931;28;20470;-76
2023/12/06 05:55:14;;;;;;;1.43;0.80;;;;;;;2.05;100.00;151892.41;5027703;28;21015;-76
2023/12/06 05:57:41;;;;;;;0.87;0.60;;;;;;;2.05;100.00;151893.69;5024655;28;20525;-76
2023/12/06 06:00:12;;;;;;;1.33;1.03;;;;;;;2.06;100.00;151896.28;5027581;28;20469;-76
2023/12/06 06:02:38;;;;;;;2.17;1.23;;;;;;;2.08;100.00;151900.13;5045016;28;21022;-76
2023/12/06 06:05:07;;;;;;;1.50;0.70;;;;;;;2.07;100.00;151898.81;5033103;28;20484;-76
2023/12/06 06:07:36;;;;;;;1.17;0.83;;;;;;;2.07;100.00;151897.53;5013651;28;20809;-76
2023/12/06 06:10:03;;;;;;;1.50;0.77;;;;;;;2.05;100.00;151893.69;5033951;28;20471;-76
2023/12/06 06:12:29;;;;;;;1.50;0.90;;;;;;;2.05;100.00;151893.69;5036615;28;20958;-76
2023/12/06 06:14:58;;;;;;;1.47;0.90;;;;;;;2.06;100.00;151895.00;5019825;28;20457;-77
2023/12/06 06:17:24;;;;;;;1.07;0.67;;;;;;;2.06;100.00;151896.28;5033458;28;20567;-76
2023/12/06 06:19:51;;;;;;;1.87;1.03;;;;;;;2.04;100.00;151891.09;5035645;28;21033;-76
2023/12/06 06:22:18;;;;;;;1.40;1.07;;;;;;;2.07;100.00;151898.81;5018123;28;20880;-76
2023/12/06 06:24:45;;;;;;;1.30;0.90;;;;;;;2.06;100.00;151896.28;5037677;28;20451;-75
2023/12/06 06:27:12;;;;;;;1.93;0.90;;;;;;;2.05;100.00;151893.69;5036953;28;20443;-76
2023/12/06 06:29:39;;;;;;;2.20;1.20;;;;;;;2.09;100.00;151903.94;5034713;28;20446;-76
2023/12/06 06:32:07;;;;;;;1.80;1.47;;;;;;;2.10;100.00;151905.25;5034807;28;20448;-84
2023/12/06 06:34:33;;;;;;;2.20;1.13;;;;;;;2.08;100.00;151901.41;5016516;28;20949;-75
2023/12/06 06:37:00;;;;;;;1.93;1.40;;;;;;;2.07;100.00;151898.81;5036052;28;20720;-75
2023/12/06 06:39:28;;;;;;;1.60;1.20;;;;;;;2.04;100.00;151891.09;5036736;28;20453;-76
2023/12/06 06:41:56;;;;;;;1.50;1.20;;;;;;;2.06;100.00;151896.28;5032937;28;21084;-76
2023/12/06 06:44:22;;;;;;;2.13;1.30;;;;;;;2.05;100.00;151893.69;5016774;28;20455;-75
2023/12/06 06:46:49;;;;;;;1.23;0.90;;;;;;;2.12;100.00;151910.44;5036522;28;20458;-76
2023/12/06 06:49:15;;;;;;;2.17;1.10;;;;;;;2.15;100.00;151918.09;5036626;28;20453;-75
2023/12/06 06:51:42;;;;;;;1.73;1.13;;;;;;;2.15;100.00;151918.09;5031065;28;20940;-75
2023/12/06 06:54:08;;;;;;;1.30;1.07;;;;;;;2.13;100.00;151914.25;5020608;28;20864;-75
2023/12/06 06:56:35;;;;;;;3.80;1.20;;;;;;;2.14;100.00;151916.84;5034616;28;20506;-76
2023/12/06 06:59:03;;;;;;;1.80;1.00;;;;;;;2.13;100.00;151914.25;5014650;28;20489;-76
2023/12/06 07:01:29;;;;;;;1.50;1.00;;;;;;;2.08;100.00;151901.41;5036162;28;21026;-76
2023/12/06 07:03:56;;;;;;;1.40;0.97;;;;;;;2.10;100.00;151906.53;5036896;28;20518;-76
2023/12/06 07:06:22;;;;;;;1.40;1.10;;;;;;;2.10;100.00;151905.25;5016155;28;20979;-76
2023/12/06 07:08:49;;;;;;;1.80;1.30;;;;;;;2.10;100.00;151906.53;5036191;28;20442;-76
2023/12/06 07:11:16;;;;;;;2.03;1.10;;;;;;;2.07;100.00;151898.81;5040802;28;20458;-75
2023/12/06 07:13:43;;;;;;;2.43;1.60;;;;;;;2.09;100.00;151902.72;5038988;28;20451;-75
2023/12/06 07:16:11;;;;;;;1.37;1.10;;;;;;;2.11;100.00;151909.13;5018992;28;20454;-75
2023/12/06 07:18:38;;;;;;;2.13;1.43;;;;;;;2.14;100.00;151916.84;5036039;28;20475;-75
2023/12/06 07:21:05;;;;;;;1.63;1.20;;;;;;;2.18;100.00;151927.13;5040848;28;20878;-76
2023/12/06 07:23:32;;;;;;;1.40;1.30;;;;;;;2.16;100.00;151920.69;5020573;28;20516;-76
2023/12/06 07:25:59;;;;;;;2.20;1.43;;;;;;;2.19;100.00;151928.41;5037583;28;20447;-75
2023/12/06 07:28:26;;;;;;;1.97;1.53;;;;;;;2.21;100.00;151934.84;5008854;28;20459;-76
2023/12/06 07:30:52;;;;;;;2.00;1.50;;;;;;;2.24;100.00;151942.56;5021393;28;20792;-75
2023/12/06 07:33:20;;;;;;;1.90;1.40;;;;;;;2.27;100.00;151948.97;5039268;28;20453;-76
2023/12/06 07:35:47;;;;;;;1.90;1.60;;;;;;;2.25;100.00;151943.84;5003553;28;20451;-75
2023/12/06 07:38:14;;;;;;;1.67;1.50;;;;;;;2.25;100.00;151945.09;5041665;28;20476;-76
2023/12/06 07:40:40;;;;;;;1.80;1.43;;;;;;;2.23;100.00;151939.97;5038312;28;20463;-76
2023/12/06 07:43:07;;;;;;;2.80;1.57;;;;;;;2.21;100.00;151934.84;5036445;28;20470;-76
2023/12/06 07:45:33;;;;;;;2.80;1.43;;;;;;;2.23;100.00;151939.97;5039083;28;20454;-75
2023/12/06 07:48:00;;;;;;;2.00;1.53;;;;;;;2.24;100.00;151942.56;5039085;28;20801;-75
2023/12/06 07:50:28;;;;;;;1.63;1.30;;;;;;;2.27;100.00;151950.28;5039333;28;20462;-76
2023/12/06 07:52:55;;;;;;;1.80;1.60;;;;;;;2.24;100.00;151942.56;5036347;28;20988;-76
2023/12/06 07:55:22;;;;;;;1.73;1.40;;;;;;;2.26;100.00;151946.41;5036758;28;20852;-76
2023/12/06 07:57:48;;;;;;;2.00;1.60;;;;;;;2.24;100.00;151942.56;5037157;28;21234;-76
2023/12/06 08:00:18;;;;;;;2.60;1.87;;;;;;;2.28;100.00;151951.53;5037951;28;20533;-75
2023/12/06 08:02:44;;;;;;;1.67;1.30;;;;;;;2.27;100.00;151950.28;5035625;28;20830;-75
2023/12/06 08:05:12;;;;;;;1.70;1.30;;;;;;;2.25;100.00;151943.84;5038047;28;20929;-75
2023/12/06 08:07:40;;;;;;;1.80;1.37;;;;;;;2.25;100.00;151943.84;5028120;28;20550;-76
2023/12/06 08:10:10;;;;;;;2.10;1.27;;;;;;;2.27;100.00;151948.97;5040212;28;20808;-76
2023/12/06 08:12:37;;;;;;;2.13;1.23;;;;;;;2.29;100.00;151955.41;5021185;28;20456;-76
2023/12/06 08:15:05;;;;;;;1.90;1.43;;;;;;;2.29;100.00;151955.41;5038253;28;20443;-76
2023/12/06 08:17:31;;;;;;;1.90;1.40;;;;;;;2.29;100.00;151954.13;5019901;28;20478;-76
2023/12/06 08:19:58;;;;;;;1.93;1.30;;;;;;;2.30;100.00;151957.94;5022594;28;20516;-76
2023/12/06 08:22:25;;;;;;;2.13;1.40;;;;;;;2.29;100.00;151955.41;5003479;28;20502;-75
2023/12/06 08:24:56;;;;;;;1.90;1.53;;;;;;;2.29;100.00;151955.41;5039942;28;20501;-75
2023/12/06 08:27:24;;;;;;;2.60;1.60;;;;;;;2.27;100.00;151950.28;5037200;28;20875;-76
2023/12/06 08:29:51;;;;;;;2.50;1.57;;;;;;;2.31;100.00;151959.25;5007105;28;20440;-76
2023/12/06 08:32:17;;;;;;;1.97;1.77;;;;;;;2.33;100.00;151965.66;5021810;28;20969;-76
2023/12/06 08:34:44;;;;;;;3.83;2.23;;;;;;;2.32;100.00;151963.13;5036866;28;20811;-76
2023/12/06 08:37:10;;;;;;;2.80;2.10;;;;;;;2.27;100.00;151948.97;5020700;28;20968;-76
2023/12/06 08:39:37;;;;;;;2.63;2.20;;;;;;;2.27;100.00;151948.97;5039785;28;20458;-76
2023/12/06 08:42:06;;;;;;;3.87;3.00;;;;;;;2.27;100.00;151950.28;5015441;28;20513;-75
2023/12/06 08:44:33;;;;;;;4.27;3.33;;;;;;;2.30;100.00;151957.94;5037679;28;20506;-76
2023/12/06 08:47:00;;;;;;;7.43;3.33;;;;;;;2.31;100.00;151960.53;5038056;28;20485;-76
2023/12/06 08:49:26;;;;;;;6.40;4.47;;;;;;;2.33;100.00;151965.66;5039199;28;21014;-75
2023/12/06 08:51:53;;;;;;;5.80;4.70;;;;;;;2.31;100.00;151959.25;5039569;28;20460;-75
2023/12/06 08:54:19;;;;;;;6.53;4.87;;;;;;;2.31;100.00;151960.53;5022000;28;20807;-76
2023/12/06 08:56:46;;;;;;;6.00;4.37;;;;;;;2.29;100.00;151954.13;5031446;28;20460;-76
2023/12/06 08:59:14;;;;;;;6.10;4.40;;;;;;;2.26;100.00;151947.69;5039153;28;20561;-76
2023/12/06 09:01:43;;;;;;;8.10;4.57;;;;;;;2.28;100.00;151952.81;5037520;28;20861;-76
2023/12/06 09:04:10;;;;;;;8.50;5.43;;;;;;;2.27;100.00;151950.28;5021232;28;20482;-76
2023/12/06 09:06:37;;;;;;;6.30;4.67;;;;;;;2.27;100.00;151950.28;5038737;28;20531;-76
2023/12/06 09:09:05;;;;;;;8.10;5.60;;;;;;;2.29;100.00;151955.41;5020196;28;20457;-76
2023/12/06 09:11:32;;;;;;;7.53;6.23;;;;;;;2.28;100.00;151952.81;5018851;28;20459;-76
2023/12/06 09:13:58;;;;;;;8.60;6.63;;;;;;;2.27;100.00;151950.28;5038307;28;20451;-76
2023/12/06 09:16:26;;;;;;;7.07;5.80;;;;;;;2.26;100.00;151947.69;5037683;28;20456;-76
2023/12/06 09:18:53;;;;;;;8.40;6.37;;;;;;;2.28;100.00;151951.53;5035802;28;20537;-76
2023/12/06 09:21:20;;;;;;;9.60;7.67;;;;;;;2.23;100.00;151939.97;5020324;28;20894;-76
2023/12/06 09:23:47;;;;;;;9.30;6.90;;;;;;;2.23;100.00;151939.97;5039063;28;20531;-76
2023/12/06 09:26:15;;;;;;;8.73;6.00;;;;;;;2.22;100.00;151937.44;5032700;28;20962;-76
2023/12/06 09:28:42;;;;;;;9.07;7.00;;;;;;;2.23;100.00;151939.97;5036221;28;20802;-76
2023/12/06 09:31:08;;;;;;;10.27;7.27;;;;;;;2.20;100.00;151932.25;5019131;28;20451;-76
2023/12/06 09:33:36;;;;;;;9.30;7.50;;;;;;;2.21;100.00;151933.53;5039667;28;20451;-76
2023/12/06 09:36:03;;;;;;;9.37;6.90;;;;;;;2.24;100.00;151942.56;5034461;28;20872;-76
2023/12/06 09:38:30;;;;;;;8.37;6.90;;;;;;;2.26;100.00;151947.69;5035798;28;20877;-76
2023/12/06 09:40:57;;;;;;;8.80;7.10;;;;;;;2.24;100.00;151942.56;5037150;28;20526;-76
2023/12/06 09:43:24;;;;;;;11.27;7.27;;;;;;;2.27;100.00;151948.97;5037947;28;20455;-76
2023/12/06 09:45:51;;;;;;;10.90;8.10;;;;;;;2.23;100.00;151938.66;5036231;28;20506;-76
2023/12/06 09:48:17;;;;;;;11.47;7.83;;;;;;;2.23;100.00;151938.66;5034730;28;20534;-76
2023/12/06 09:50:45;;;;;;;9.60;7.43;;;;;;;2.24;100.00;151942.56;5034812;28;20987;-76
2023/12/06 09:53:11;;;;;;;10.40;8.00;;;;;;;2.21;100.00;151934.84;5035813;28;20728;-76
2023/12/06 09:55:38;;;;;;;9.23;7.17;;;;;;;2.21;100.00;151934.84;5019211;28;20462;-76
2023/12/06 09:58:06;;;;;;;9.40;6.73;;;;;;;2.19;100.00;151928.41;5035707;28;20486;-76
2023/12/06 10:00:32;;;;;;;13.57;7.77;;;;;;;2.21;100.00;151934.84;5037497;28;20448;-76
2023/12/06 10:02:59;;;;;;;10.73;7.63;;;;;;;2.24;100.00;151942.56;5019911;28;20568;-77
2023/12/06 10:05:26;;;;;;;10.60;7.73;;;;;;;2.28;100.00;151951.53;5036373;28;20810;-76
2023/12/06 10:07:53;;;;;;;11.10;7.67;;;;;;;2.26;100.00;151946.41;5019001;28;20456;-76
2023/12/06 10:10:21;;;;;;;8.97;7.10;;;;;;;2.22;100.00;151936.13;5018590;28;20508;-76
2023/12/06 10:12:52;;;;;;;12.17;7.87;;;;;;;2.19;100.00;151929.72;5037146;28;20487;-76
2023/12/06 10:15:19;;;;;;;10.73;7.60;;;;;;;2.18;100.00;151925.81;5036218;28;20447;-76
2023/12/06 10:17:46;;;;;;;10.27;7.80;;;;;;;2.18;100.00;151927.13;5017578;28;20463;-76
2023/12/06 10:20:13;;;;;;;11.20;7.00;;;;;;;2.20;100.00;151930.94;5037813;28;20792;-76
2023/12/06 10:22:40;;;;;;;10.47;7.40;;;;;;;2.20;100.00;151932.25;5019373;28;20804;-76
2023/12/06 10:25:08;;;;;;;10.30;7.20;;;;;;;2.22;100.00;151937.44;5038273;28;20490;-76
2023/12/06 10:27:35;;;;;;;10.90;7.40;;;;;;;2.20;100.00;151930.94;5035892;28;20457;-76
2023/12/06 10:30:03;;;;;;;9.83;7.47;;;;;;;2.21;100.00;151934.84;5024572;28;20519;-76
2023/12/06 10:32:30;;;;;;;8.50;6.63;;;;;;;2.26;100.00;151946.41;5037549;28;20444;-76
2023/12/06 10:34:58;;;;;;;10.70;7.63;;;;;;;2.26;100.00;151946.41;5039817;28;20450;-77
2023/12/06 10:37:26;;;;;;;12.60;7.97;;;;;;;2.28;100.00;151952.81;5033865;28;20452;-76
2023/12/06 10:39:56;;;;;;;11.30;8.90;;;;;;;2.30;100.00;151956.72;5037262;28;20905;-76
2023/12/06 10:42:26;;;;;;;9.93;7.10;;;;;;;2.31;100.00;151960.53;5037011;28;20459;-76
2023/12/06 10:44:54;;;;;;;11.13;7.50;;;;;;;2.31;100.00;151959.25;5037452;28;20451;-76
2023/12/06 10:47:21;;;;;;;9.60;7.20;;;;;;;2.29;100.00;151955.41;5034669;28;20849;-76
2023/12/06 10:49:48;;;;;;;10.60;7.30;;;;;;;2.28;100.00;151951.53;5036213;28;20480;-76
2023/12/06 10:52:16;;;;;;;8.87;7.33;;;;;;;2.29;100.00;151955.41;5017617;28;20459;-76
2023/12/06 10:54:43;;;;;;;10.07;7.30;;;;;;;2.28;100.00;151952.81;5036113;28;20447;-76
2023/12/06 10:57:10;;;;;;;8.60;6.83;;;;;;;2.29;100.00;151955.41;5036860;28;20459;-76
2023/12/06 10:59:38;;;;;;;8.90;6.87;;;;;;;2.28;100.00;151952.81;5037701;28;20470;-76
2023/12/06 11:02:05;;;;;;;9.93;7.30;;;;;;;2.31;100.00;151959.25;5035352;28;20535;-76
2023/12/06 11:04:34;;;;;;;10.97;7.30;;;;;;;2.31;100.00;151959.25;5037143;28;20480;-76
2023/12/06 11:07:06;;;;;;;10.00;7.43;;;;;;;2.34;100.00;151968.25;5018033;28;20566;-76
2023/12/06 11:09:44;;;;;;;12.27;6.97;;;;;;;2.32;100.00;151963.13;5038517;28;20913;-76
2023/12/06 11:12:18;;;;;;;7.93;5.97;;;;;;;2.31;100.00;151959.25;5019789;28;20980;-76
2023/12/06 11:15:00;;;;;;;9.23;7.03;;;;;;;2.34;100.00;151968.25;5018749;28;20520;-76
2023/12/06 11:17:36;;;;;;;9.53;6.20;;;;;;;2.39;100.00;151979.81;5036250;28;20824;-76
2023/12/06 11:20:04;;;;;;;8.43;6.33;;;;;;;2.32;100.00;151963.13;5018439;28;20462;-76
2023/12/06 11:22:31;;;;;;;9.00;7.23;;;;;;;2.33;100.00;151965.66;5016961;28;20504;-76
2023/12/06 11:24:57;;;;;;;7.50;6.13;;;;;;;2.34;100.00;151966.97;5018067;28;20881;-76